createdAt,value
2019-05-20T00:00:54.469Z,48.80
2019-05-20T00:03:21.930Z,48.80
2019-05-20T00:05:49.496Z,48.70
2019-05-20T00:08:16.989Z,48.60
2019-05-20T00:10:44.517Z,48.60
2019-05-20T00:13:11.991Z,48.60
2019-05-20T00:15:39.451Z,48.60
2019-05-20T00:18:06.915Z,48.60
2019-05-20T00:20:34.376Z,48.50
2019-05-20T00:23:01.858Z,48.50
2019-05-20T00:25:29.313Z,48.50
2019-05-20T00:27:56.790Z,48.50
2019-05-20T00:30:24.249Z,48.50
2019-05-20T00:32:51.726Z,48.40
2019-05-20T00:35:19.192Z,48.40
2019-05-20T00:37:46.664Z,48.30
2019-05-20T00:40:14.122Z,48.30
2019-05-20T00:42:41.589Z,48.30
2019-05-20T00:45:09.059Z,48.30
2019-05-20T00:47:36.522Z,48.30
2019-05-20T00:50:04.759Z,48.30
2019-05-20T00:52:32.219Z,48.20
2019-05-20T00:54:59.690Z,48.20
2019-05-20T00:57:27.149Z,48.20
2019-05-20T00:59:54.613Z,48.20
2019-05-20T01:02:22.090Z,48.30
2019-05-20T01:04:49.560Z,48.20
2019-05-20T01:07:17.026Z,48.10
2019-05-20T01:09:44.484Z,48.20
2019-05-20T01:12:11.945Z,48.10
2019-05-20T01:14:39.682Z,48.10
2019-05-20T01:17:07.155Z,48.00
2019-05-20T01:19:34.718Z,48.00
2019-05-20T01:22:02.192Z,48.00
2019-05-20T01:24:29.736Z,48.00
2019-05-20T01:26:57.232Z,48.00
2019-05-20T01:29:24.691Z,48.00
2019-05-20T01:31:52.176Z,47.90
2019-05-20T01:34:19.631Z,47.90
2019-05-20T01:36:47.101Z,47.90
2019-05-20T01:39:14.572Z,48.10
2019-05-20T01:41:42.034Z,47.90
2019-05-20T01:44:09.494Z,47.90
2019-05-20T01:46:36.962Z,47.90
2019-05-20T01:49:04.454Z,47.90
2019-05-20T01:51:31.921Z,47.90
2019-05-20T01:53:59.386Z,47.90
2019-05-20T01:56:26.934Z,47.90
2019-05-20T01:58:54.406Z,48.00
2019-05-20T02:01:21.872Z,48.00
2019-05-20T02:03:49.333Z,48.00
2019-05-20T02:06:16.807Z,48.10
2019-05-20T02:08:44.276Z,48.20
2019-05-20T02:11:11.770Z,48.30
2019-05-20T02:13:52.806Z,48.30
2019-05-20T02:16:22.066Z,48.40
2019-05-20T02:18:49.546Z,48.40
2019-05-20T02:21:17.132Z,48.50
2019-05-20T02:23:44.636Z,48.50
2019-05-20T02:26:12.098Z,48.60
2019-05-20T02:28:39.644Z,48.60
2019-05-20T02:31:07.111Z,48.70
2019-05-20T02:33:49.944Z,48.70
2019-05-20T02:36:03.765Z,48.80
2019-05-20T02:38:31.230Z,48.80
2019-05-20T02:40:58.696Z,48.90
2019-05-20T02:43:26.185Z,48.90
2019-05-20T02:45:53.650Z,48.90
2019-05-20T02:48:21.124Z,49.60
2019-05-20T02:50:48.583Z,49.00
2019-05-20T02:53:16.067Z,49.00
2019-05-20T02:55:43.600Z,49.10
2019-05-20T02:58:11.074Z,49.10
2019-05-20T03:00:38.540Z,49.10
2019-05-20T03:03:06.006Z,49.20
2019-05-20T03:05:33.475Z,49.10
2019-05-20T03:08:00.953Z,49.20
2019-05-20T03:10:28.411Z,49.30
2019-05-20T03:12:55.886Z,49.20
2019-05-20T03:15:23.346Z,49.30
2019-05-20T03:17:50.828Z,49.40
2019-05-20T03:20:18.292Z,49.40
2019-05-20T03:22:45.767Z,49.40
2019-05-20T03:25:13.236Z,49.50
2019-05-20T03:27:40.698Z,49.40
2019-05-20T03:30:08.172Z,49.50
2019-05-20T03:32:35.693Z,49.60
2019-05-20T03:35:03.254Z,49.70
2019-05-20T03:37:30.776Z,49.60
2019-05-20T03:39:58.243Z,49.70
2019-05-20T03:42:25.716Z,49.70
2019-05-20T03:44:53.191Z,49.70
2019-05-20T03:47:20.650Z,49.70
2019-05-20T03:49:48.125Z,49.80
2019-05-20T03:52:15.583Z,49.70
2019-05-20T03:54:43.072Z,49.70
2019-05-20T03:57:10.538Z,49.70
2019-05-20T03:59:38.015Z,49.70
2019-05-20T04:02:05.532Z,49.70
2019-05-20T04:04:33.227Z,49.70
2019-05-20T04:07:00.712Z,49.70
2019-05-20T04:09:28.266Z,49.70
2019-05-20T04:11:55.735Z,49.70
2019-05-20T04:14:23.214Z,49.70
2019-05-20T04:16:52.054Z,49.70
2019-05-20T04:19:19.517Z,49.70
2019-05-20T04:21:47.077Z,49.70
2019-05-20T04:24:14.563Z,49.70
2019-05-20T04:26:42.078Z,49.80
2019-05-20T04:29:09.538Z,49.80
2019-05-20T04:31:37.014Z,49.80
2019-05-20T04:34:04.482Z,49.80
2019-05-20T04:36:31.952Z,49.80
2019-05-20T04:38:59.426Z,49.80
2019-05-20T04:41:26.892Z,49.80
2019-05-20T04:43:54.380Z,49.80
2019-05-20T04:46:21.839Z,49.70
2019-05-20T04:48:49.324Z,49.80
2019-05-20T04:51:16.788Z,49.80
2019-05-20T04:53:44.258Z,49.70
2019-05-20T04:56:11.729Z,49.70
2019-05-20T04:58:39.193Z,49.50
2019-05-20T05:01:06.654Z,49.50
2019-05-20T05:03:34.259Z,49.40
2019-05-20T05:06:01.740Z,49.40
2019-05-20T05:08:29.283Z,49.40
2019-05-20T05:10:56.740Z,49.80
2019-05-20T05:13:24.208Z,49.60
2019-05-20T05:15:51.678Z,49.70
2019-05-20T05:18:19.142Z,49.70
2019-05-20T05:20:46.614Z,49.70
2019-05-20T05:23:14.071Z,49.70
2019-05-20T05:25:41.543Z,49.70
2019-05-20T05:28:09.001Z,49.60
2019-05-20T05:30:36.477Z,49.50
2019-05-20T05:33:03.963Z,49.50
2019-05-20T05:35:31.430Z,49.50
2019-05-20T05:37:58.942Z,49.40
2019-05-20T05:40:29.645Z,49.40
2019-05-20T05:42:57.114Z,49.40
2019-05-20T05:45:31.378Z,49.40
2019-05-20T05:47:58.848Z,49.40
2019-05-20T05:50:26.320Z,49.40
2019-05-20T05:52:53.781Z,49.40
2019-05-20T05:55:21.258Z,49.40
2019-05-20T05:57:48.759Z,49.30
2019-05-20T06:00:16.242Z,49.40
2019-05-20T06:02:43.751Z,49.40
2019-05-20T06:05:11.275Z,49.40
2019-05-20T06:07:38.739Z,49.40
2019-05-20T06:10:06.215Z,49.50
2019-05-20T06:12:33.678Z,49.40
2019-05-20T06:15:01.152Z,49.40
2019-05-20T06:17:28.614Z,49.30
2019-05-20T06:19:56.101Z,49.40
2019-05-20T06:22:23.623Z,49.40
2019-05-20T06:24:51.712Z,49.40
2019-05-20T06:27:19.276Z,49.50
2019-05-20T06:29:46.778Z,49.70
2019-05-20T06:32:14.332Z,49.80
2019-05-20T06:34:43.122Z,50.00
2019-05-20T06:37:12.324Z,50.20
2019-05-20T06:39:39.787Z,50.20
2019-05-20T06:42:07.265Z,50.50
2019-05-20T06:44:50.230Z,50.80
2019-05-20T06:47:03.928Z,51.10
2019-05-20T06:49:31.391Z,51.40
2019-05-20T06:51:58.858Z,51.70
2019-05-20T06:54:26.344Z,52.00
2019-05-20T06:56:53.946Z,52.60
2019-05-20T06:59:21.448Z,53.00
2019-05-20T07:01:48.978Z,53.00
2019-05-20T07:04:16.443Z,53.70
2019-05-20T07:06:47.205Z,53.80
2019-05-20T07:09:13.094Z,54.70
2019-05-20T07:11:40.834Z,54.70
2019-05-20T07:14:08.290Z,55.30
2019-05-20T07:16:35.766Z,55.80
2019-05-20T07:19:03.226Z,56.40
2019-05-20T07:21:30.710Z,56.90
2019-05-20T07:23:58.174Z,57.20
2019-05-20T07:26:25.648Z,57.80
2019-05-20T07:28:53.113Z,57.90
2019-05-20T07:31:20.576Z,58.20
2019-05-20T07:33:48.040Z,58.60
2019-05-20T07:36:15.527Z,58.80
2019-05-20T07:38:42.982Z,59.00
2019-05-20T07:41:10.470Z,59.10
2019-05-20T07:43:37.938Z,59.40
2019-05-20T07:46:05.418Z,59.40
2019-05-20T07:48:33.449Z,59.40
2019-05-20T07:51:01.080Z,59.50
2019-05-20T07:53:28.573Z,59.50
2019-05-20T07:55:57.797Z,59.60
2019-05-20T07:58:25.263Z,59.70
2019-05-20T08:00:52.740Z,59.60
2019-05-20T08:03:20.223Z,59.60
2019-05-20T08:05:47.965Z,59.60
2019-05-20T08:08:15.501Z,59.70
2019-05-20T08:10:43.027Z,60.00
2019-05-20T08:13:10.547Z,59.90
2019-05-20T08:15:38.061Z,60.10
2019-05-20T08:18:05.535Z,60.20
2019-05-20T08:20:33.020Z,60.10
2019-05-20T08:23:00.767Z,60.10
2019-05-20T08:25:28.247Z,60.50
2019-05-20T08:27:55.715Z,60.50
2019-05-20T08:30:24.807Z,60.60
2019-05-20T08:32:52.728Z,60.70
2019-05-20T08:35:23.614Z,60.80
2019-05-20T08:37:49.928Z,60.80
2019-05-20T08:40:17.453Z,60.90
2019-05-20T08:42:44.915Z,60.90
2019-05-20T08:45:12.385Z,61.10
2019-05-20T08:47:39.898Z,61.10
2019-05-20T08:50:12.904Z,61.10
2019-05-20T08:52:36.595Z,61.20
2019-05-20T08:55:04.544Z,61.30
2019-05-20T08:57:32.005Z,61.30
2019-05-20T08:59:59.463Z,61.30
2019-05-20T09:02:26.944Z,61.20
2019-05-20T09:04:54.413Z,61.30
2019-05-20T09:07:21.887Z,61.10
2019-05-20T09:09:49.371Z,61.00
2019-05-20T09:12:16.827Z,60.90
2019-05-20T09:14:44.310Z,60.90
2019-05-20T09:17:11.796Z,60.80
2019-05-20T09:19:39.252Z,60.70
2019-05-20T09:22:06.731Z,60.70
2019-05-20T09:24:34.310Z,60.60
2019-05-20T09:27:01.854Z,60.60
2019-05-20T09:29:29.371Z,60.60
2019-05-20T09:31:56.917Z,60.70
2019-05-20T09:34:24.464Z,60.40
2019-05-20T09:36:51.958Z,60.30
2019-05-20T09:39:19.434Z,60.30
2019-05-20T09:41:46.892Z,60.20
2019-05-20T09:44:14.368Z,60.10
2019-05-20T09:46:41.830Z,60.10
2019-05-20T09:49:09.304Z,60.00
2019-05-20T09:51:36.800Z,59.90
2019-05-20T09:54:04.319Z,59.90
2019-05-20T09:56:31.785Z,59.80
2019-05-20T09:58:59.256Z,59.70
2019-05-20T10:01:26.718Z,59.70
2019-05-20T10:03:54.191Z,59.50
2019-05-20T10:06:21.681Z,59.50
2019-05-20T10:08:49.121Z,59.60
2019-05-20T10:11:16.590Z,59.40
2019-05-20T10:13:44.076Z,59.50
2019-05-20T10:16:11.811Z,59.50
2019-05-20T10:18:39.599Z,59.40
2019-05-20T10:21:07.081Z,59.50
2019-05-20T10:23:34.559Z,59.40
2019-05-20T10:26:02.080Z,59.50
2019-05-20T10:28:29.573Z,59.50
2019-05-20T10:30:57.064Z,59.50
2019-05-20T10:33:24.586Z,59.50
2019-05-20T10:35:52.055Z,59.50
2019-05-20T10:38:19.537Z,59.40
2019-05-20T10:40:47.033Z,60.20
2019-05-20T10:43:14.547Z,59.40
2019-05-20T10:45:42.007Z,59.40
2019-05-20T10:48:09.522Z,59.60
2019-05-20T10:50:36.975Z,59.40
2019-05-20T10:53:04.463Z,59.40
2019-05-20T10:55:32.028Z,59.40
2019-05-20T10:57:59.542Z,59.30
2019-05-20T11:00:27.014Z,59.20
2019-05-20T11:02:54.488Z,59.10
2019-05-20T11:05:21.967Z,59.20
2019-05-20T11:07:49.682Z,59.10
2019-05-20T11:10:17.332Z,59.00
2019-05-20T11:12:44.826Z,59.00
2019-05-20T11:15:12.286Z,58.90
2019-05-20T11:17:39.748Z,58.80
2019-05-20T11:20:07.490Z,58.80
2019-05-20T11:22:34.952Z,58.90
2019-05-20T11:25:02.489Z,58.90
2019-05-20T11:27:29.947Z,58.70
2019-05-20T11:29:57.418Z,58.70
2019-05-20T11:32:24.881Z,58.70
2019-05-20T11:34:52.350Z,58.60
2019-05-20T11:37:19.807Z,58.70
2019-05-20T11:39:47.291Z,58.60
2019-05-20T11:42:14.756Z,58.60
2019-05-20T11:44:42.229Z,58.50
2019-05-20T11:47:09.679Z,58.60
2019-05-20T11:49:37.219Z,58.50
2019-05-20T11:52:04.745Z,58.40
2019-05-20T11:54:32.213Z,58.40
2019-05-20T11:56:59.689Z,58.30
2019-05-20T11:59:27.185Z,58.30
2019-05-20T12:01:54.642Z,58.30
2019-05-20T12:04:22.132Z,58.30
2019-05-20T12:06:49.586Z,58.20
2019-05-20T12:09:17.087Z,58.20
2019-05-20T12:11:44.915Z,58.10
2019-05-20T12:14:12.420Z,58.20
2019-05-20T12:16:39.937Z,58.10
2019-05-20T12:19:07.423Z,58.00
2019-05-20T12:21:34.881Z,58.00
2019-05-20T12:24:02.362Z,58.00
2019-05-20T12:26:29.827Z,58.00
2019-05-20T12:28:57.303Z,57.90
2019-05-20T12:31:24.767Z,57.90
2019-05-20T12:33:52.247Z,57.80
2019-05-20T12:36:19.749Z,57.90
2019-05-20T12:38:47.200Z,57.70
2019-05-20T12:41:14.668Z,57.70
2019-05-20T12:43:45.044Z,57.70
2019-05-20T12:46:11.323Z,57.60
2019-05-20T12:48:38.813Z,57.60
2019-05-20T12:51:06.298Z,57.70
2019-05-20T12:53:33.770Z,57.60
2019-05-20T12:56:01.225Z,57.60
2019-05-20T12:58:28.694Z,57.60
2019-05-20T13:00:56.170Z,57.60
2019-05-20T13:03:23.642Z,57.60
2019-05-20T13:05:51.109Z,57.10
2019-05-20T13:08:18.581Z,57.40
2019-05-20T13:10:46.051Z,57.50
2019-05-20T13:13:13.515Z,57.40
2019-05-20T13:15:40.974Z,57.30
2019-05-20T13:18:08.443Z,57.40
2019-05-20T13:20:35.920Z,57.20
2019-05-20T13:23:05.749Z,57.30
2019-05-20T13:25:32.803Z,57.30
2019-05-20T13:28:00.270Z,57.20
2019-05-20T13:30:27.741Z,57.20
2019-05-20T13:32:55.451Z,57.30
2019-05-20T13:35:22.909Z,57.10
2019-05-20T13:37:50.366Z,57.20
2019-05-20T13:40:17.846Z,57.10
2019-05-20T13:42:45.321Z,57.10
2019-05-20T13:45:12.804Z,57.10
2019-05-20T13:47:40.262Z,57.10
2019-05-20T13:50:07.843Z,57.10
2019-05-20T13:52:35.308Z,57.20
2019-05-20T13:55:03.131Z,57.10
2019-05-20T13:57:30.644Z,57.10
2019-05-20T13:59:58.181Z,57.70
2019-05-20T14:02:25.647Z,57.00
2019-05-20T14:04:53.122Z,57.10
2019-05-20T14:07:20.587Z,57.10
2019-05-20T14:09:48.138Z,57.10
2019-05-20T14:12:15.607Z,56.90
2019-05-20T14:14:43.093Z,57.00
2019-05-20T14:17:10.564Z,56.90
2019-05-20T14:19:38.048Z,56.80
2019-05-20T14:22:05.571Z,56.80
2019-05-20T14:24:33.065Z,56.80
2019-05-20T14:27:00.547Z,56.90
2019-05-20T14:29:28.002Z,56.90
2019-05-20T14:31:55.471Z,57.00
2019-05-20T14:34:22.935Z,57.00
2019-05-20T14:36:53.020Z,57.10
2019-05-20T14:39:19.664Z,57.10
2019-05-20T14:41:47.138Z,57.10
2019-05-20T14:44:14.611Z,57.10
2019-05-20T14:46:42.095Z,57.10
2019-05-20T14:49:09.573Z,57.20
2019-05-20T14:51:37.051Z,57.10
2019-05-20T14:54:04.800Z,57.00
2019-05-20T14:56:32.266Z,57.10
2019-05-20T14:58:59.737Z,57.00
2019-05-20T15:01:27.208Z,56.90
2019-05-20T15:03:54.666Z,56.90
2019-05-20T15:06:22.142Z,56.80
2019-05-20T15:08:49.619Z,56.80
2019-05-20T15:11:17.085Z,56.70
2019-05-20T15:13:44.551Z,56.70
2019-05-20T15:16:12.030Z,56.60
2019-05-20T15:18:39.494Z,56.60
2019-05-20T15:21:06.970Z,56.50
2019-05-20T15:23:34.435Z,56.50
2019-05-20T15:26:01.897Z,56.40
2019-05-20T15:28:29.394Z,56.40
2019-05-20T15:30:56.894Z,56.40
2019-05-20T15:33:24.375Z,56.40
2019-05-20T15:35:51.852Z,56.40
2019-05-20T15:38:19.337Z,56.40
2019-05-20T15:40:46.811Z,56.40
2019-05-20T15:43:14.282Z,56.30
2019-05-20T15:45:41.747Z,56.30
2019-05-20T15:48:09.214Z,56.20
2019-05-20T15:50:36.862Z,56.20
2019-05-20T15:53:04.371Z,56.10
2019-05-20T15:55:31.906Z,56.10
2019-05-20T15:57:59.379Z,56.00
2019-05-20T16:00:26.841Z,56.00
2019-05-20T16:02:54.384Z,56.50
2019-05-20T16:05:21.964Z,55.90
2019-05-20T16:07:49.437Z,55.90
2019-05-20T16:10:16.911Z,55.90
2019-05-20T16:12:44.387Z,55.80
2019-05-20T16:15:11.864Z,55.80
2019-05-20T16:17:39.394Z,55.80
2019-05-20T16:20:07.348Z,55.80
2019-05-20T16:22:34.931Z,55.80
2019-05-20T16:25:02.472Z,55.70
2019-05-20T16:27:32.730Z,55.70
2019-05-20T16:30:05.924Z,55.70
2019-05-20T16:32:28.351Z,55.70
2019-05-20T16:34:55.829Z,55.60
2019-05-20T16:37:23.306Z,55.50
2019-05-20T16:39:50.770Z,55.50
2019-05-20T16:42:18.331Z,55.50
2019-05-20T16:44:45.808Z,55.50
2019-05-20T16:47:13.287Z,55.50
2019-05-20T16:49:40.754Z,55.50
2019-05-20T16:52:08.274Z,55.50
2019-05-20T16:54:35.778Z,55.40
2019-05-20T16:57:03.268Z,55.40
2019-05-20T16:59:30.795Z,55.40
2019-05-20T17:01:58.260Z,55.40
2019-05-20T17:04:25.725Z,55.30
2019-05-20T17:06:53.202Z,55.30
2019-05-20T17:09:20.666Z,55.30
2019-05-20T17:11:48.119Z,55.30
2019-05-20T17:14:15.590Z,55.30
2019-05-20T17:16:43.065Z,55.20
2019-05-20T17:19:10.540Z,55.20
2019-05-20T17:21:38.003Z,55.20
2019-05-20T17:24:05.494Z,55.10
2019-05-20T17:26:32.937Z,55.10
2019-05-20T17:29:00.419Z,55.10
2019-05-20T17:31:30.682Z,55.10
2019-05-20T17:33:57.116Z,55.10
2019-05-20T17:36:24.574Z,55.10
2019-05-20T17:38:52.047Z,55.00
2019-05-20T17:41:19.521Z,54.90
2019-05-20T17:43:46.971Z,54.90
2019-05-20T17:46:14.434Z,54.80
2019-05-20T17:48:41.912Z,54.80
2019-05-20T17:51:09.375Z,54.80
2019-05-20T17:53:36.853Z,54.80
2019-05-20T17:56:04.434Z,54.80
2019-05-20T17:58:31.973Z,54.80
2019-05-20T18:01:13.701Z,54.80
2019-05-20T18:03:28.643Z,54.80
2019-05-20T18:05:56.108Z,54.80
2019-05-20T18:08:25.259Z,54.80
2019-05-20T18:10:52.731Z,54.80
2019-05-20T18:13:20.196Z,54.80
2019-05-20T18:15:47.657Z,54.80
2019-05-20T18:18:15.142Z,54.80
2019-05-20T18:20:42.621Z,54.80
2019-05-20T18:23:10.163Z,54.80
2019-05-20T18:25:37.710Z,54.80
2019-05-20T18:28:05.332Z,54.80
2019-05-20T18:30:32.983Z,54.80
2019-05-20T18:33:00.822Z,54.70
2019-05-20T18:35:28.468Z,54.70
2019-05-20T18:37:55.968Z,54.70
2019-05-20T18:40:23.452Z,54.60
2019-05-20T18:42:50.909Z,54.60
2019-05-20T18:45:18.415Z,54.60
2019-05-20T18:47:45.926Z,54.50
2019-05-20T18:50:13.403Z,54.60
2019-05-20T18:52:40.870Z,54.50
2019-05-20T18:55:08.342Z,54.40
2019-05-20T18:57:35.803Z,54.50
2019-05-20T19:00:04.483Z,54.50
2019-05-20T19:02:32.201Z,54.50
2019-05-20T19:04:59.669Z,54.60
2019-05-20T19:07:27.138Z,54.70
2019-05-20T19:09:54.612Z,54.70
2019-05-20T19:12:22.083Z,54.70
2019-05-20T19:14:49.551Z,54.70
2019-05-20T19:17:17.030Z,54.90
2019-05-20T19:19:44.591Z,55.00
2019-05-20T19:22:12.107Z,55.00
2019-05-20T19:24:39.575Z,55.10
2019-05-20T19:27:07.938Z,55.20
2019-05-20T19:29:35.412Z,55.30
2019-05-20T19:32:02.962Z,55.40
2019-05-20T19:34:30.533Z,55.40
2019-05-20T19:36:58.012Z,55.50
2019-05-20T19:39:25.572Z,55.40
2019-05-20T19:41:53.103Z,55.60
2019-05-20T19:44:20.639Z,55.70
2019-05-20T19:46:48.114Z,55.70
2019-05-20T19:49:15.587Z,55.70
2019-05-20T19:51:43.055Z,55.70
2019-05-20T19:54:10.526Z,55.70
2019-05-20T19:56:37.995Z,55.70
2019-05-20T19:59:05.463Z,55.80
2019-05-20T20:01:32.933Z,55.80
2019-05-20T20:04:00.407Z,55.80
2019-05-20T20:06:27.880Z,55.90
2019-05-20T20:08:55.351Z,55.90
2019-05-20T20:11:22.822Z,55.90
2019-05-20T20:13:50.292Z,55.90
2019-05-20T20:16:18.346Z,55.80
2019-05-20T20:18:45.915Z,55.80
2019-05-20T20:21:13.425Z,55.90
2019-05-20T20:23:40.931Z,55.90
2019-05-20T20:26:08.423Z,55.90
2019-05-20T20:28:35.883Z,55.90
2019-05-20T20:31:03.350Z,55.90
2019-05-20T20:33:30.815Z,56.00
2019-05-20T20:35:58.283Z,56.00
2019-05-20T20:38:25.757Z,56.60
2019-05-20T20:40:53.221Z,56.10
2019-05-20T20:43:20.691Z,56.10
2019-05-20T20:45:48.174Z,56.10
2019-05-20T20:48:15.638Z,56.00
2019-05-20T20:50:43.276Z,56.00
2019-05-20T20:53:10.732Z,56.00
2019-05-20T20:55:38.233Z,56.00
2019-05-20T20:58:05.724Z,56.10
2019-05-20T21:00:33.237Z,56.00
2019-05-20T21:03:00.692Z,56.00
2019-05-20T21:05:28.161Z,56.00
2019-05-20T21:07:55.900Z,56.00
2019-05-20T21:10:23.365Z,56.00
2019-05-20T21:12:50.843Z,56.00
2019-05-20T21:15:18.313Z,56.00
2019-05-20T21:17:45.778Z,56.00
2019-05-20T21:20:13.255Z,56.00
2019-05-20T21:22:40.719Z,56.70
2019-05-20T21:25:08.246Z,56.00
2019-05-20T21:27:35.729Z,56.10
2019-05-20T21:30:04.294Z,56.10
2019-05-20T21:32:31.759Z,56.10
2019-05-20T21:34:59.238Z,56.10
2019-05-20T21:37:26.707Z,56.10
2019-05-20T21:39:54.180Z,56.10
2019-05-20T21:42:21.632Z,56.20
2019-05-20T21:44:49.098Z,56.20
2019-05-20T21:47:16.561Z,56.20
2019-05-20T21:49:44.032Z,56.20
2019-05-20T21:52:11.500Z,56.20
2019-05-20T21:54:38.962Z,56.20
2019-05-20T21:57:06.443Z,56.20
2019-05-20T21:59:33.907Z,56.20
2019-05-20T22:02:01.388Z,56.20
2019-05-20T22:04:28.837Z,56.20
2019-05-20T22:06:56.326Z,56.20
2019-05-20T22:09:23.793Z,56.20
2019-05-20T22:11:51.318Z,56.20
2019-05-20T22:14:18.803Z,56.20
2019-05-20T22:16:46.265Z,56.20
2019-05-20T22:19:13.755Z,56.20
2019-05-20T22:21:42.862Z,56.20
2019-05-20T22:24:10.328Z,56.20
2019-05-20T22:26:37.800Z,56.20
2019-05-20T22:29:05.257Z,56.20
2019-05-20T22:31:32.729Z,56.20
2019-05-20T22:34:00.198Z,56.20
2019-05-20T22:36:27.676Z,56.20
2019-05-20T22:38:55.146Z,56.10
2019-05-20T22:41:22.618Z,56.20
2019-05-20T22:43:50.126Z,56.20
2019-05-20T22:46:17.627Z,56.20
2019-05-20T22:48:45.092Z,56.20
2019-05-20T22:51:12.562Z,56.10
2019-05-20T22:53:40.032Z,56.20
2019-05-20T22:56:07.518Z,56.10
2019-05-20T22:58:38.410Z,56.20
2019-05-20T23:01:04.175Z,56.10
2019-05-20T23:03:31.634Z,56.00
2019-05-20T23:05:59.174Z,56.10
2019-05-20T23:08:26.639Z,56.10
2019-05-20T23:10:54.110Z,56.10
2019-05-20T23:13:21.568Z,56.10
2019-05-20T23:15:49.046Z,56.10
2019-05-20T23:18:16.582Z,56.10
2019-05-20T23:20:44.054Z,56.20
2019-05-20T23:23:11.531Z,56.20
2019-05-20T23:25:38.987Z,56.20
2019-05-20T23:28:06.458Z,56.20
2019-05-20T23:30:33.928Z,56.20
2019-05-20T23:33:01.387Z,56.20
2019-05-20T23:35:28.855Z,56.20
2019-05-20T23:37:56.317Z,56.20
2019-05-20T23:40:23.791Z,56.20
2019-05-20T23:42:51.259Z,56.20
2019-05-20T23:45:18.730Z,56.10
2019-05-20T23:47:46.189Z,56.10
2019-05-20T23:50:13.761Z,56.20
2019-05-20T23:52:41.290Z,56.20
2019-05-20T23:55:08.767Z,56.10
2019-05-20T23:57:36.239Z,56.10
